Terminal Aerodrome Forecast
Issued by NWS

Home | Current Version | Previous Version | Graphics & Text | Print | Product List | Glossary On
Versions: 1 2 3 4 5 6 7 8 9 10 11 12 13 14 15
963
FTUS43 KOAX 080656 AAA
TAFCDR
TAF AMD
KCDR 080656Z 0807/0906 29015KT P6SM SCT250
     FM081800 29012KT P6SM BKN080
     FM090100 30007KT P6SM BKN080=

USA.gov is the U.S. government's official web portal to all federal, state and local government web resources and services.